(°C)
23°
23°
24°
25°
26°
28°
29°
(°C)
27°
27°
28°
29°
30°
31°
32°
SO
OSO
OSO
O
O
ONO
ONO
(km/h)
5-11
5-10
5-11
6-13
7-17
7-19
8-20
(mm)
0
0
0
0
0
0
0
(%)
24
18
12
8
4
0
7

Elevação do sol

/ -20.5°
sun-icon
UV 7
05:39
20:34
Quarto crescente (83°)
12:48
00:30

METAR para Wilmington Manor (KILG)

Hora Condições Temperatura/
Ponto de condensação
Vento Visibilidade Tempo Nuvens Pressão Mudança Bruto
IFR 23.3°C / 21.7°C 280º 3kt >10km - Overcast 500ft 1010 - KILG 060651Z AUTO 28003KT 9SM OVC005 23/22 A2985 RMK AO2 SLP106 T02330217
IFR 22.8°C / 21.7°C 230º 4kt >10km - Broken Clouds 600ft - KILG 060613Z AUTO 23004KT 10SM BKN006 23/22 A2986 RMK AO2 T02280217
VFR 22.8°C / 21.1°C 220º 4kt >10km - Scattered Clouds 800ft
Scattered Clouds 8000ft
- KILG 060602Z AUTO 22004KT 10SM SCT008 SCT080 23/21 A2985 RMK AO2 T02280211
VFR 23.3°C / 21.7°C 200º 4kt >10km - Scattered Clouds 6000ft
Overcast 8500ft
1011 - KILG 060451Z AUTO 20004KT 10SM SCT060 OVC085 23/22 A2986 RMK AO2 SLP110 T02330217 403000200
VFR 22.8°C / 21.7°C 190º 4kt >10km - Overcast 8500ft 1011 - KILG 060351Z AUTO 19004KT 10SM OVC085 23/22 A2986 RMK AO2 SLP111 T02280217
VFR 22.8°C / 21.7°C variable 0kt >10km - Broken Clouds 9000ft 1011 - KILG 060251Z 00000KT 10SM BKN090 23/22 A2987 RMK AO2 SLP113 T02280217 58007
VFR 22.8°C / 21.7°C 180º 3kt >10km - Scattered Clouds 800ft
Broken Clouds 9500ft
- KILG 060208Z 18003KT 10SM SCT008 BKN095 23/22 A2989 RMK AO2 T02280217
IFR 23.3°C / 21.7°C 180º 4kt >10km - Broken Clouds 900ft 1012 - KILG 060151Z 18004KT 10SM BKN009 23/22 A2990 RMK AO2 SLP122 T02330217
IFR 23.3°C / 21.7°C 190º 5kt >10km - Broken Clouds 900ft - KILG 060117Z 19005KT 10SM BKN009 23/22 A2989 RMK AO2 T02330217
MVFR 23.3°C / 21.7°C 190º 5kt >10km - Scattered Clouds 900ft
Broken Clouds 2600ft
Overcast 3200ft
- KILG 060112Z AUTO 19005KT 10SM SCT009 BKN026 OVC032 23/22 A2989 RMK AO2 T02330217
IFR 23.3°C / 22.2°C 190º 7kt >10km - Broken Clouds 800ft 1011 - KILG 060051Z 19007KT 10SM BKN008 23/22 A2988 RMK AO2 SLP118 T02330222
IFR 23.3°C / 21.7°C 190º 6kt >10km 0.13mm precipitation Broken Clouds 800ft 1012 - KILG 052351Z 19006KT 10SM BKN008 23/22 A2989 RMK AO2 RAB03E16 SLP121 P0000 60003 T02330217 10289 20228 58007
VFR 23.3°C / 21.7°C 200º 8kt >10km 0.13mm precipitation Few Clouds 800ft
Few Clouds 1200ft
Broken Clouds 3700ft
- KILG 052340Z AUTO 20008KT 10SM FEW008 FEW012 BKN037 23/22 A2989 RMK AO2 RAB03E16 P0000 T02330217
VFR 23.3°C / 21.1°C 190º 9kt >10km 0.13mm precipitation Few Clouds 2700ft
Broken Clouds 8000ft
Overcast 10000ft
1012 - KILG 052251Z AUTO 19009KT 10SM FEW027 BKN080 OVC100 23/21 A2989 RMK AO2 RAE40 SLP123 P0000 T02330211
VFR 23.9°C / 20°C 200º 9kt >10km Light Rain 0.13mm precipitation Broken Clouds 4400ft
Overcast 9000ft
1012 - KILG 052151Z 20009KT 10SM -RA BKN044 OVC090 24/20 A2991 RMK AO2 RAE16B25 SLP128 P0000 T02390200
VFR 23.9°C / 19.4°C 190º 10kt >10km Light Rain 0.13mm precipitation Scattered Clouds 2700ft
Scattered Clouds 3900ft
Overcast 9500ft
- KILG 052136Z 19010KT 10SM -RA SCT027 SCT039 OVC095 24/19 A2991 RMK AO2 RAE16B25 P0000 T02390194
MVFR 24.4°C / 19.4°C 190º 12kt >10km 0.13mm precipitation Overcast 2900ft - KILG 052117Z 19012KT 10SM OVC029 24/19 A2992 RMK AO2 RAE16 P0000 T02440194
VFR 25.6°C / 20°C 180º 18kt Gust 22kt >10km Light Rain 0.76mm precipitation Broken Clouds 3600ft
Overcast 4600ft
1012 - KILG 052051Z 18018G22KT 10SM -RA BKN036 OVC046 26/20 A2991 RMK AO2 RAB31 SLP128 P0003 60003 T02560200 56022
VFR 27.8°C / 20.6°C 180º 9kt >10km - Overcast 4400ft 1013 - KILG 051951Z 18009KT 10SM OVC044 28/21 A2992 RMK AO2 SLP131 T02780206
VFR 28.3°C / 20.6°C 160º 10kt >10km - Overcast 5500ft 1013 - KILG 051851Z 16010KT 10SM OVC055 28/21 A2994 RMK AO2 SLP139 T02830206
VFR 28.9°C / 19.4°C 180º 12kt >10km - Scattered Clouds 4800ft
Broken Clouds 6500ft
1014 - KILG 051751Z 18012KT 10SM SCT048 BKN065 29/19 A2998 RMK AO2 SLP149 T02890194 10300 20233 58026
VFR 28.9°C / 20°C 180º 11kt >10km - Broken Clouds 6500ft 1015 - KILG 051651Z 18011KT 10SM BKN065 29/20 A3000 RMK AO2 SLP159 T02890200
VFR 28.9°C / 19.4°C 220º 12kt >10km - Few Clouds 4000ft
Scattered Clouds 8000ft
1017 - KILG 051551Z 22012KT 10SM FEW040 SCT080 29/19 A3004 RMK AO2 SLP170 T02890194
VFR 28.3°C / 19.4°C 180º 12kt >10km - Few Clouds 3500ft
Scattered Clouds 8000ft
1017 - KILG 051451Z 18012KT 10SM FEW035 SCT080 28/19 A3005 RMK AO2 SLP175 T02830194 58021

IFR

23.3°C / 21.7°C

[Mais]
Vento 280º 3kt
Visibilidade >10km
Tempo -
Nuvens Overcast 500ft
Pressão 1010
Mudança -
Bruto KILG 060651Z AUTO 28003KT 9SM OVC005 23/22 A2985 RMK AO2 SLP106 T02330217

IFR

22.8°C / 21.7°C

[Mais]
Vento 230º 4kt
Visibilidade >10km
Tempo -
Nuvens Broken Clouds 600ft
Pressão
Mudança -
Bruto KILG 060613Z AUTO 23004KT 10SM BKN006 23/22 A2986 RMK AO2 T02280217

VFR

22.8°C / 21.1°C

[Mais]
Vento 220º 4kt
Visibilidade >10km
Tempo -
Nuvens Scattered Clouds 800ft
Scattered Clouds 8000ft
Pressão
Mudança -
Bruto KILG 060602Z AUTO 22004KT 10SM SCT008 SCT080 23/21 A2985 RMK AO2 T02280211

VFR

23.3°C / 21.7°C

[Mais]
Vento 200º 4kt
Visibilidade >10km
Tempo -
Nuvens Scattered Clouds 6000ft
Overcast 8500ft
Pressão 1011
Mudança -
Bruto KILG 060451Z AUTO 20004KT 10SM SCT060 OVC085 23/22 A2986 RMK AO2 SLP110 T02330217 403000200

VFR

22.8°C / 21.7°C

[Mais]
Vento 190º 4kt
Visibilidade >10km
Tempo -
Nuvens Overcast 8500ft
Pressão 1011
Mudança -
Bruto KILG 060351Z AUTO 19004KT 10SM OVC085 23/22 A2986 RMK AO2 SLP111 T02280217

VFR

22.8°C / 21.7°C

[Mais]
Vento variable 0kt
Visibilidade >10km
Tempo -
Nuvens Broken Clouds 9000ft
Pressão 1011
Mudança -
Bruto KILG 060251Z 00000KT 10SM BKN090 23/22 A2987 RMK AO2 SLP113 T02280217 58007

VFR

22.8°C / 21.7°C

[Mais]
Vento 180º 3kt
Visibilidade >10km
Tempo -
Nuvens Scattered Clouds 800ft
Broken Clouds 9500ft
Pressão
Mudança -
Bruto KILG 060208Z 18003KT 10SM SCT008 BKN095 23/22 A2989 RMK AO2 T02280217

IFR

23.3°C / 21.7°C

[Mais]
Vento 180º 4kt
Visibilidade >10km
Tempo -
Nuvens Broken Clouds 900ft
Pressão 1012
Mudança -
Bruto KILG 060151Z 18004KT 10SM BKN009 23/22 A2990 RMK AO2 SLP122 T02330217

IFR

23.3°C / 21.7°C

[Mais]
Vento 190º 5kt
Visibilidade >10km
Tempo -
Nuvens Broken Clouds 900ft
Pressão
Mudança -
Bruto KILG 060117Z 19005KT 10SM BKN009 23/22 A2989 RMK AO2 T02330217

MVFR

23.3°C / 21.7°C

[Mais]
Vento 190º 5kt
Visibilidade >10km
Tempo -
Nuvens Scattered Clouds 900ft
Broken Clouds 2600ft
Overcast 3200ft
Pressão
Mudança -
Bruto KILG 060112Z AUTO 19005KT 10SM SCT009 BKN026 OVC032 23/22 A2989 RMK AO2 T02330217

IFR

23.3°C / 22.2°C

[Mais]
Vento 190º 7kt
Visibilidade >10km
Tempo -
Nuvens Broken Clouds 800ft
Pressão 1011
Mudança -
Bruto KILG 060051Z 19007KT 10SM BKN008 23/22 A2988 RMK AO2 SLP118 T02330222

IFR

23.3°C / 21.7°C

[Mais]
Vento 190º 6kt
Visibilidade >10km
Tempo 0.13mm precipitation
Nuvens Broken Clouds 800ft
Pressão 1012
Mudança -
Bruto KILG 052351Z 19006KT 10SM BKN008 23/22 A2989 RMK AO2 RAB03E16 SLP121 P0000 60003 T02330217 10289 20228 58007

VFR

23.3°C / 21.7°C

[Mais]
Vento 200º 8kt
Visibilidade >10km
Tempo 0.13mm precipitation
Nuvens Few Clouds 800ft
Few Clouds 1200ft
Broken Clouds 3700ft
Pressão
Mudança -
Bruto KILG 052340Z AUTO 20008KT 10SM FEW008 FEW012 BKN037 23/22 A2989 RMK AO2 RAB03E16 P0000 T02330217

VFR

23.3°C / 21.1°C

[Mais]
Vento 190º 9kt
Visibilidade >10km
Tempo 0.13mm precipitation
Nuvens Few Clouds 2700ft
Broken Clouds 8000ft
Overcast 10000ft
Pressão 1012
Mudança -
Bruto KILG 052251Z AUTO 19009KT 10SM FEW027 BKN080 OVC100 23/21 A2989 RMK AO2 RAE40 SLP123 P0000 T02330211

VFR

23.9°C / 20°C

[Mais]
Vento 200º 9kt
Visibilidade >10km
Tempo Light Rain 0.13mm precipitation
Nuvens Broken Clouds 4400ft
Overcast 9000ft
Pressão 1012
Mudança -
Bruto KILG 052151Z 20009KT 10SM -RA BKN044 OVC090 24/20 A2991 RMK AO2 RAE16B25 SLP128 P0000 T02390200

VFR

23.9°C / 19.4°C

[Mais]
Vento 190º 10kt
Visibilidade >10km
Tempo Light Rain 0.13mm precipitation
Nuvens Scattered Clouds 2700ft
Scattered Clouds 3900ft
Overcast 9500ft
Pressão
Mudança -
Bruto KILG 052136Z 19010KT 10SM -RA SCT027 SCT039 OVC095 24/19 A2991 RMK AO2 RAE16B25 P0000 T02390194

MVFR

24.4°C / 19.4°C

[Mais]
Vento 190º 12kt
Visibilidade >10km
Tempo 0.13mm precipitation
Nuvens Overcast 2900ft
Pressão
Mudança -
Bruto KILG 052117Z 19012KT 10SM OVC029 24/19 A2992 RMK AO2 RAE16 P0000 T02440194

VFR

25.6°C / 20°C

[Mais]
Vento 180º 18kt Gust 22kt
Visibilidade >10km
Tempo Light Rain 0.76mm precipitation
Nuvens Broken Clouds 3600ft
Overcast 4600ft
Pressão 1012
Mudança -
Bruto KILG 052051Z 18018G22KT 10SM -RA BKN036 OVC046 26/20 A2991 RMK AO2 RAB31 SLP128 P0003 60003 T02560200 56022

VFR

27.8°C / 20.6°C

[Mais]
Vento 180º 9kt
Visibilidade >10km
Tempo -
Nuvens Overcast 4400ft
Pressão 1013
Mudança -
Bruto KILG 051951Z 18009KT 10SM OVC044 28/21 A2992 RMK AO2 SLP131 T02780206

VFR

28.3°C / 20.6°C

[Mais]
Vento 160º 10kt
Visibilidade >10km
Tempo -
Nuvens Overcast 5500ft
Pressão 1013
Mudança -
Bruto KILG 051851Z 16010KT 10SM OVC055 28/21 A2994 RMK AO2 SLP139 T02830206

VFR

28.9°C / 19.4°C

[Mais]
Vento 180º 12kt
Visibilidade >10km
Tempo -
Nuvens Scattered Clouds 4800ft
Broken Clouds 6500ft
Pressão 1014
Mudança -
Bruto KILG 051751Z 18012KT 10SM SCT048 BKN065 29/19 A2998 RMK AO2 SLP149 T02890194 10300 20233 58026

VFR

28.9°C / 20°C

[Mais]
Vento 180º 11kt
Visibilidade >10km
Tempo -
Nuvens Broken Clouds 6500ft
Pressão 1015
Mudança -
Bruto KILG 051651Z 18011KT 10SM BKN065 29/20 A3000 RMK AO2 SLP159 T02890200

VFR

28.9°C / 19.4°C

[Mais]
Vento 220º 12kt
Visibilidade >10km
Tempo -
Nuvens Few Clouds 4000ft
Scattered Clouds 8000ft
Pressão 1017
Mudança -
Bruto KILG 051551Z 22012KT 10SM FEW040 SCT080 29/19 A3004 RMK AO2 SLP170 T02890194

VFR

28.3°C / 19.4°C

[Mais]
Vento 180º 12kt
Visibilidade >10km
Tempo -
Nuvens Few Clouds 3500ft
Scattered Clouds 8000ft
Pressão 1017
Mudança -
Bruto KILG 051451Z 18012KT 10SM FEW035 SCT080 28/19 A3005 RMK AO2 SLP175 T02830194 58021

TAF para Wilmington Manor (KILG)

From till


From till Wind variable 4kt. Visibility 10km or more. Scattered Clouds 800ft. Broken Clouds 8000ft.
Temporarly from till Visibility 6400m. Mist . Broken Clouds 800ft.
From till Wind 290º 7kt. Visibility 10km or more. Few Clouds 3000ft. Scattered Clouds 7000ft.
From till Wind 320º 8kt. Visibility 10km or more. Scattered Clouds 5000ft.
From till Wind variable 3kt. Visibility 10km or more. in the Vicinity Showers . Broken Clouds 8000ft.

Bruto: KILG 060627Z 0606/0706 VRB04KT P6SM SCT008 BKN080 TEMPO 0606/0609 4SM BR BKN008 FM061200 29007KT P6SM FEW030 SCT070 FM061700 32008KT P6SM SCT050 FM070000 VRB03KT P6SM VCSH BKN080

Radar e precipitação nowcast para Wilmington Manor

Chuvisco
Leve
Moderado
Forte
Muito forte
Granizo

O marcador do lugar é colocado em Wilmington Manor. Esta animação mostra o radar de precipitação para a última hora, assim como a 1h previsão. A queda de neve pode ser invisível para o radar. A intensidade da precipitação é codificada por cores, variando do azul claro ao laranja.

Imagens de satélite atuais para Wilmington Manor, EUA

O marcador de lugar é colocado em Wilmington Manor. [Mais]

A imagem de satélite em tempo real combina luz visível durante o dia com radiação infravermelha durante a noite. À noite, a imagem não é escura, pois a radiação infravermelha pode detectar diferenças de temperatura. Infelizmente, nuvens baixas e neblina são difíceis de distinguir das temperaturas do solo e, portanto, podem ser quase invisíveis durante a noite. As imagens de satélite Meteosat para a Europa são atualizadas em tempo real a cada 5 minutos. GOES-16/GOES-17 ( América do Norte e do Sul) e Himawari (Ásia) são atualizadas a cada 10 minutos.

Voltar ao início